Lake Worth, FL (33467)

5:11 AM EST on February 10, 2016 (GMT -0500)
Suburban Lake Worth/Lantana | | Change Station
CLOSE
Current Station
Personal Weather Station
Location: Lake Worth, FL
Elevation: 21 ft
Nearby Weather Stations

Elev 21 ft 26.60 °N, 80.16 °W | Updated 6 seconds ago

Overcast
Overcast
53.1 °F
Feels Like 53.1 °F
N
4.0
Wind Variable Wind from NNW
Gusts 5.0 mph

Today
High -- | Low -- °F
--% Chance of Precip.
Yesterday
High -- | Low -- °F
Precip. -- in
Pressure 30.13 in
Visibility 10.0 miles
Clouds Mostly Cloudy 22000 ft
Dew Point 45 °F
Humidity 73%
Rainfall 0.00 in
Snow Depth Not available.
7:00 AM 6:09 PM
Waxing Crescent, 4% visible
METAR KPBI 100953Z 33011KT 10SM BKN220 12/06 A3013 RMK AO2 SLP203 T01170056
Pressure 30.13 in
Visibility 10.0 miles
Clouds Mostly Cloudy 22000 ft
Dew Point 45 °F
Humidity 73%
Rainfall 0.00 in
Snow Depth Not available.
7:00 AM 6:09 PM
Waxing Crescent, 4% visible
METAR KPBI 100953Z 33011KT 10SM BKN220 12/06 A3013 RMK AO2 SLP203 T01170056

10-Day Weather Forecast

Almanac

Astronomy

Feb. 10, 2016 Rise Set
Actual Time
Civil Twilight
Nautical Twilight
Astronomical Twilight
Moon
Length of Visible Light
Length of Day
Tomorrow will be .
, % of the Moon is Illuminated

Today's Extremes

State Highs State Lows

Community

WunderPhotos

Upload Photos

1,891,830 photos uploaded!

WunderBlog® & News

Nearby

Air Quality

  Air Quality AQ Index Pollutant
Not available.

Snow Depth

Station Depth Elevation

Earthquake Activity

City Distance Mag. Time & Date
Minimum magnitude displayed is 2.5.

Coastal Water Temperatures

Place Temperature

Stations

Nearby Weather Stations

Station Location Temp. Windchill Dew Point Humidity Wind Precip. Elev Updated Type
                   

Watches & Warnings

There are currently no watches in effect.